sensor_id;sensor_type;location;lat;lon;timestamp;P1;durP1;ratioP1;P2;durP2;ratioP2
65315;SDS011;51920;53.952;10.292;2022-07-29T00:01:19;2.83;;;1.90;;
65315;SDS011;51920;53.952;10.292;2022-07-29T00:03:45;3.10;;;1.80;;
65315;SDS011;51920;53.952;10.292;2022-07-29T00:06:11;2.40;;;1.90;;
65315;SDS011;51920;53.952;10.292;2022-07-29T00:08:36;1.70;;;1.60;;
65315;SDS011;51920;53.952;10.292;2022-07-29T00:11:01;4.93;;;1.93;;
65315;SDS011;51920;53.952;10.292;2022-07-29T00:13:27;2.78;;;1.73;;
65315;SDS011;51920;53.952;10.292;2022-07-29T00:15:52;4.23;;;1.90;;
65315;SDS011;51920;53.952;10.292;2022-07-29T00:18:18;3.87;;;2.07;;
65315;SDS011;51920;53.952;10.292;2022-07-29T00:20:43;3.40;;;1.97;;
65315;SDS011;51920;53.952;10.292;2022-07-29T00:23:08;3.77;;;1.90;;
65315;SDS011;51920;53.952;10.292;2022-07-29T00:25:34;3.40;;;1.95;;
65315;SDS011;51920;53.952;10.292;2022-07-29T00:27:59;2.57;;;1.70;;
65315;SDS011;51920;53.952;10.292;2022-07-29T00:30:25;2.50;;;1.80;;
65315;SDS011;51920;53.952;10.292;2022-07-29T00:32:50;2.83;;;2.10;;
65315;SDS011;51920;53.952;10.292;2022-07-29T00:35:15;3.93;;;2.00;;
65315;SDS011;51920;53.952;10.292;2022-07-29T00:37:59;2.63;;;1.88;;
65315;SDS011;51920;53.952;10.292;2022-07-29T00:40:25;2.57;;;1.97;;
65315;SDS011;51920;53.952;10.292;2022-07-29T00:42:50;4.45;;;2.00;;
65315;SDS011;51920;53.952;10.292;2022-07-29T00:45:17;3.27;;;2.10;;
65315;SDS011;51920;53.952;10.292;2022-07-29T00:47:43;2.92;;;1.90;;
65315;SDS011;51920;53.952;10.292;2022-07-29T00:50:09;2.67;;;2.10;;
65315;SDS011;51920;53.952;10.292;2022-07-29T00:52:37;2.27;;;1.70;;
65315;SDS011;51920;53.952;10.292;2022-07-29T00:55:03;2.67;;;1.90;;
65315;SDS011;51920;53.952;10.292;2022-07-29T00:57:30;2.28;;;1.70;;
65315;SDS011;51920;53.952;10.292;2022-07-29T00:59:55;2.53;;;1.70;;
65315;SDS011;51920;53.952;10.292;2022-07-29T01:02:21;3.27;;;1.70;;
65315;SDS011;51920;53.952;10.292;2022-07-29T01:04:47;2.58;;;2.20;;
65315;SDS011;51920;53.952;10.292;2022-07-29T01:07:12;2.75;;;2.00;;
65315;SDS011;51920;53.952;10.292;2022-07-29T01:09:38;2.13;;;1.80;;
65315;SDS011;51920;53.952;10.292;2022-07-29T01:12:04;3.85;;;2.00;;
65315;SDS011;51920;53.952;10.292;2022-07-29T01:14:30;2.17;;;1.80;;
65315;SDS011;51920;53.952;10.292;2022-07-29T01:17:00;3.40;;;1.90;;
65315;SDS011;51920;53.952;10.292;2022-07-29T01:25:07;2.33;;;1.73;;
65315;SDS011;51920;53.952;10.292;2022-07-29T01:27:51;2.70;;;1.70;;
65315;SDS011;51920;53.952;10.292;2022-07-29T01:30:24;2.97;;;1.88;;
65315;SDS011;51920;53.952;10.292;2022-07-29T01:32:53;4.10;;;2.00;;
65315;SDS011;51920;53.952;10.292;2022-07-29T01:35:25;2.58;;;2.10;;
65315;SDS011;51920;53.952;10.292;2022-07-29T01:38:02;3.53;;;1.80;;
65315;SDS011;51920;53.952;10.292;2022-07-29T01:40:34;3.45;;;1.75;;
65315;SDS011;51920;53.952;10.292;2022-07-29T01:43:07;2.03;;;1.83;;
65315;SDS011;51920;53.952;10.292;2022-07-29T01:45:40;2.55;;;1.80;;
65315;SDS011;51920;53.952;10.292;2022-07-29T01:50:58;2.13;;;1.80;;
65315;SDS011;51920;53.952;10.292;2022-07-29T01:53:33;2.58;;;1.80;;
65315;SDS011;51920;53.952;10.292;2022-07-29T01:56:00;2.15;;;1.83;;
65315;SDS011;51920;53.952;10.292;2022-07-29T01:58:28;3.70;;;1.92;;
65315;SDS011;51920;53.952;10.292;2022-07-29T02:00:56;3.28;;;2.13;;
65315;SDS011;51920;53.952;10.292;2022-07-29T02:03:23;2.77;;;1.90;;
65315;SDS011;51920;53.952;10.292;2022-07-29T02:05:51;2.60;;;2.00;;
65315;SDS011;51920;53.952;10.292;2022-07-29T02:08:20;3.30;;;2.30;;
65315;SDS011;51920;53.952;10.292;2022-07-29T02:10:47;2.22;;;1.90;;
65315;SDS011;51920;53.952;10.292;2022-07-29T02:13:15;2.30;;;1.90;;
65315;SDS011;51920;53.952;10.292;2022-07-29T02:15:43;5.13;;;2.07;;
65315;SDS011;51920;53.952;10.292;2022-07-29T02:18:16;2.83;;;1.92;;
65315;SDS011;51920;53.952;10.292;2022-07-29T02:20:47;4.03;;;2.25;;
65315;SDS011;51920;53.952;10.292;2022-07-29T02:23:14;3.10;;;2.05;;
65315;SDS011;51920;53.952;10.292;2022-07-29T02:25:43;3.90;;;2.25;;
65315;SDS011;51920;53.952;10.292;2022-07-29T02:28:09;3.00;;;2.20;;
65315;SDS011;51920;53.952;10.292;2022-07-29T02:30:36;4.43;;;2.25;;
65315;SDS011;51920;53.952;10.292;2022-07-29T02:33:05;3.20;;;2.17;;
65315;SDS011;51920;53.952;10.292;2022-07-29T02:35:32;3.15;;;1.90;;
65315;SDS011;51920;53.952;10.292;2022-07-29T02:37:58;3.80;;;2.20;;
65315;SDS011;51920;53.952;10.292;2022-07-29T02:40:42;3.45;;;2.47;;
65315;SDS011;51920;53.952;10.292;2022-07-29T02:43:09;5.10;;;2.20;;
65315;SDS011;51920;53.952;10.292;2022-07-29T02:45:35;4.20;;;2.20;;
65315;SDS011;51920;53.952;10.292;2022-07-29T02:48:03;3.97;;;2.20;;
65315;SDS011;51920;53.952;10.292;2022-07-29T02:50:34;3.85;;;2.15;;
65315;SDS011;51920;53.952;10.292;2022-07-29T02:53:05;3.60;;;2.13;;
65315;SDS011;51920;53.952;10.292;2022-07-29T02:55:37;3.42;;;2.00;;
65315;SDS011;51920;53.952;10.292;2022-07-29T02:58:13;2.88;;;2.13;;
65315;SDS011;51920;53.952;10.292;2022-07-29T03:00:43;4.47;;;2.40;;
65315;SDS011;51920;53.952;10.292;2022-07-29T03:03:13;2.97;;;2.10;;
65315;SDS011;51920;53.952;10.292;2022-07-29T03:05:41;3.83;;;1.80;;
65315;SDS011;51920;53.952;10.292;2022-07-29T03:08:07;3.92;;;2.10;;
65315;SDS011;51920;53.952;10.292;2022-07-29T03:10:35;4.45;;;2.10;;
65315;SDS011;51920;53.952;10.292;2022-07-29T03:13:03;3.20;;;2.13;;
65315;SDS011;51920;53.952;10.292;2022-07-29T03:15:30;5.10;;;2.30;;
65315;SDS011;51920;53.952;10.292;2022-07-29T03:17:56;5.93;;;2.50;;
65315;SDS011;51920;53.952;10.292;2022-07-29T03:20:23;3.72;;;2.35;;
65315;SDS011;51920;53.952;10.292;2022-07-29T03:22:49;5.63;;;2.70;;
65315;SDS011;51920;53.952;10.292;2022-07-29T03:25:17;5.07;;;2.70;;
65315;SDS011;51920;53.952;10.292;2022-07-29T03:27:43;4.35;;;2.50;;
65315;SDS011;51920;53.952;10.292;2022-07-29T03:30:09;3.97;;;2.40;;
65315;SDS011;51920;53.952;10.292;2022-07-29T03:32:37;5.20;;;2.57;;
65315;SDS011;51920;53.952;10.292;2022-07-29T03:35:03;3.95;;;2.33;;
65315;SDS011;51920;53.952;10.292;2022-07-29T03:37:30;4.18;;;2.60;;
65315;SDS011;51920;53.952;10.292;2022-07-29T03:39:56;3.05;;;2.30;;
65315;SDS011;51920;53.952;10.292;2022-07-29T03:42:23;3.70;;;2.40;;
65315;SDS011;51920;53.952;10.292;2022-07-29T03:44:52;4.13;;;2.20;;
65315;SDS011;51920;53.952;10.292;2022-07-29T03:47:20;2.75;;;2.00;;
65315;SDS011;51920;53.952;10.292;2022-07-29T03:49:51;4.53;;;2.13;;
65315;SDS011;51920;53.952;10.292;2022-07-29T03:52:18;4.45;;;2.42;;
65315;SDS011;51920;53.952;10.292;2022-07-29T03:54:44;4.70;;;2.80;;
65315;SDS011;51920;53.952;10.292;2022-07-29T03:57:10;5.70;;;2.95;;
65315;SDS011;51920;53.952;10.292;2022-07-29T03:59:36;4.63;;;3.17;;
65315;SDS011;51920;53.952;10.292;2022-07-29T04:02:06;4.83;;;3.10;;
65315;SDS011;51920;53.952;10.292;2022-07-29T04:04:35;5.03;;;3.30;;
65315;SDS011;51920;53.952;10.292;2022-07-29T04:07:01;5.15;;;3.28;;
65315;SDS011;51920;53.952;10.292;2022-07-29T04:09:26;5.80;;;3.47;;
65315;SDS011;51920;53.952;10.292;2022-07-29T04:11:52;5.40;;;3.47;;
65315;SDS011;51920;53.952;10.292;2022-07-29T04:14:17;7.17;;;3.57;;
65315;SDS011;51920;53.952;10.292;2022-07-29T04:16:43;7.47;;;3.53;;
65315;SDS011;51920;53.952;10.292;2022-07-29T04:19:08;5.80;;;3.20;;
65315;SDS011;51920;53.952;10.292;2022-07-29T04:21:40;7.73;;;3.80;;
65315;SDS011;51920;53.952;10.292;2022-07-29T04:24:06;6.30;;;3.30;;
65315;SDS011;51920;53.952;10.292;2022-07-29T04:26:33;5.53;;;3.45;;
65315;SDS011;51920;53.952;10.292;2022-07-29T04:28:59;6.15;;;3.33;;
65315;SDS011;51920;53.952;10.292;2022-07-29T04:31:24;5.47;;;3.30;;
65315;SDS011;51920;53.952;10.292;2022-07-29T04:33:50;5.33;;;3.23;;
65315;SDS011;51920;53.952;10.292;2022-07-29T04:36:15;5.27;;;3.53;;
65315;SDS011;51920;53.952;10.292;2022-07-29T04:38:40;4.23;;;3.00;;
65315;SDS011;51920;53.952;10.292;2022-07-29T04:41:06;6.80;;;3.37;;
65315;SDS011;51920;53.952;10.292;2022-07-29T04:43:33;6.80;;;3.25;;
65315;SDS011;51920;53.952;10.292;2022-07-29T04:45:59;5.68;;;3.40;;
65315;SDS011;51920;53.952;10.292;2022-07-29T04:48:25;5.10;;;3.50;;
65315;SDS011;51920;53.952;10.292;2022-07-29T04:50:51;4.93;;;3.10;;
65315;SDS011;51920;53.952;10.292;2022-07-29T04:53:16;4.50;;;3.07;;
65315;SDS011;51920;53.952;10.292;2022-07-29T04:55:42;6.40;;;3.17;;
65315;SDS011;51920;53.952;10.292;2022-07-29T04:58:08;6.07;;;3.15;;
65315;SDS011;51920;53.952;10.292;2022-07-29T05:00:34;5.43;;;3.00;;
65315;SDS011;51920;53.952;10.292;2022-07-29T05:02:59;4.63;;;2.73;;
65315;SDS011;51920;53.952;10.292;2022-07-29T05:05:25;5.27;;;2.90;;
65315;SDS011;51920;53.952;10.292;2022-07-29T05:07:50;5.80;;;2.97;;
65315;SDS011;51920;53.952;10.292;2022-07-29T05:10:15;5.80;;;3.20;;
65315;SDS011;51920;53.952;10.292;2022-07-29T05:12:41;8.03;;;2.87;;
65315;SDS011;51920;53.952;10.292;2022-07-29T05:15:06;5.03;;;3.00;;
65315;SDS011;51920;53.952;10.292;2022-07-29T05:17:32;5.05;;;3.10;;
65315;SDS011;51920;53.952;10.292;2022-07-29T05:19:57;5.50;;;2.87;;
65315;SDS011;51920;53.952;10.292;2022-07-29T05:22:23;7.67;;;3.20;;
65315;SDS011;51920;53.952;10.292;2022-07-29T05:24:48;4.88;;;2.90;;
65315;SDS011;51920;53.952;10.292;2022-07-29T05:27:13;5.27;;;2.90;;
65315;SDS011;51920;53.952;10.292;2022-07-29T05:29:39;6.77;;;2.80;;
65315;SDS011;51920;53.952;10.292;2022-07-29T05:32:04;4.27;;;2.80;;
65315;SDS011;51920;53.952;10.292;2022-07-29T05:34:30;4.32;;;2.83;;
65315;SDS011;51920;53.952;10.292;2022-07-29T05:36:56;5.00;;;2.95;;
65315;SDS011;51920;53.952;10.292;2022-07-29T05:39:22;4.53;;;2.57;;
65315;SDS011;51920;53.952;10.292;2022-07-29T05:41:48;4.32;;;2.50;;
65315;SDS011;51920;53.952;10.292;2022-07-29T05:44:13;3.90;;;2.70;;
65315;SDS011;51920;53.952;10.292;2022-07-29T05:46:39;3.90;;;2.57;;
65315;SDS011;51920;53.952;10.292;2022-07-29T05:49:04;4.97;;;2.50;;
65315;SDS011;51920;53.952;10.292;2022-07-29T05:51:31;4.35;;;2.50;;
65315;SDS011;51920;53.952;10.292;2022-07-29T05:53:57;5.33;;;3.30;;
65315;SDS011;51920;53.952;10.292;2022-07-29T05:56:24;5.15;;;3.17;;
65315;SDS011;51920;53.952;10.292;2022-07-29T05:58:50;5.80;;;3.05;;
65315;SDS011;51920;53.952;10.292;2022-07-29T06:01:15;4.60;;;2.73;;
65315;SDS011;51920;53.952;10.292;2022-07-29T06:03:41;4.30;;;2.57;;
65315;SDS011;51920;53.952;10.292;2022-07-29T06:06:06;3.90;;;2.55;;
65315;SDS011;51920;53.952;10.292;2022-07-29T06:08:32;5.07;;;2.40;;
65315;SDS011;51920;53.952;10.292;2022-07-29T06:10:59;3.13;;;2.35;;
65315;SDS011;51920;53.952;10.292;2022-07-29T06:13:25;6.72;;;2.60;;
65315;SDS011;51920;53.952;10.292;2022-07-29T06:15:50;4.90;;;2.60;;
65315;SDS011;51920;53.952;10.292;2022-07-29T06:18:15;5.25;;;2.45;;
65315;SDS011;51920;53.952;10.292;2022-07-29T06:20:41;6.73;;;2.80;;
65315;SDS011;51920;53.952;10.292;2022-07-29T06:23:06;4.60;;;2.70;;
65315;SDS011;51920;53.952;10.292;2022-07-29T06:25:32;4.03;;;2.50;;
65315;SDS011;51920;53.952;10.292;2022-07-29T06:27:59;6.53;;;2.77;;
65315;SDS011;51920;53.952;10.292;2022-07-29T06:30:25;5.78;;;2.67;;
65315;SDS011;51920;53.952;10.292;2022-07-29T06:32:50;7.77;;;2.83;;
65315;SDS011;51920;53.952;10.292;2022-07-29T06:35:16;4.30;;;2.47;;
65315;SDS011;51920;53.952;10.292;2022-07-29T06:37:41;5.77;;;2.50;;
65315;SDS011;51920;53.952;10.292;2022-07-29T06:40:06;7.33;;;2.63;;
65315;SDS011;51920;53.952;10.292;2022-07-29T06:42:51;6.65;;;2.70;;
65315;SDS011;51920;53.952;10.292;2022-07-29T06:45:16;6.73;;;2.70;;
65315;SDS011;51920;53.952;10.292;2022-07-29T06:47:42;4.28;;;2.40;;
65315;SDS011;51920;53.952;10.292;2022-07-29T06:50:07;7.17;;;2.77;;
65315;SDS011;51920;53.952;10.292;2022-07-29T06:52:37;6.10;;;2.83;;
65315;SDS011;51920;53.952;10.292;2022-07-29T06:55:04;6.57;;;2.60;;
65315;SDS011;51920;53.952;10.292;2022-07-29T06:57:30;4.28;;;2.67;;
65315;SDS011;51920;53.952;10.292;2022-07-29T06:59:58;4.43;;;2.47;;
65315;SDS011;51920;53.952;10.292;2022-07-29T07:02:24;4.32;;;2.50;;
65315;SDS011;51920;53.952;10.292;2022-07-29T07:04:49;4.83;;;2.37;;
65315;SDS011;51920;53.952;10.292;2022-07-29T07:07:15;3.65;;;2.30;;
65315;SDS011;51920;53.952;10.292;2022-07-29T07:09:40;3.30;;;2.17;;
65315;SDS011;51920;53.952;10.292;2022-07-29T07:12:05;3.50;;;2.30;;
65315;SDS011;51920;53.952;10.292;2022-07-29T07:14:31;4.38;;;2.30;;
65315;SDS011;51920;53.952;10.292;2022-07-29T07:16:57;6.53;;;2.27;;
65315;SDS011;51920;53.952;10.292;2022-07-29T07:19:22;5.10;;;2.03;;
65315;SDS011;51920;53.952;10.292;2022-07-29T07:21:47;5.17;;;2.33;;
65315;SDS011;51920;53.952;10.292;2022-07-29T07:24:13;4.55;;;2.17;;
65315;SDS011;51920;53.952;10.292;2022-07-29T07:26:38;3.43;;;2.20;;
65315;SDS011;51920;53.952;10.292;2022-07-29T07:29:05;3.72;;;2.25;;
65315;SDS011;51920;53.952;10.292;2022-07-29T07:31:30;3.83;;;2.10;;
65315;SDS011;51920;53.952;10.292;2022-07-29T07:33:55;3.57;;;2.40;;
65315;SDS011;51920;53.952;10.292;2022-07-29T07:36:21;3.97;;;2.28;;
65315;SDS011;51920;53.952;10.292;2022-07-29T07:38:47;4.40;;;2.30;;
65315;SDS011;51920;53.952;10.292;2022-07-29T07:41:12;3.50;;;2.05;;
65315;SDS011;51920;53.952;10.292;2022-07-29T07:43:38;4.00;;;2.10;;
65315;SDS011;51920;53.952;10.292;2022-07-29T07:46:03;3.87;;;2.17;;
65315;SDS011;51920;53.952;10.292;2022-07-29T07:48:29;4.75;;;1.90;;
65315;SDS011;51920;53.952;10.292;2022-07-29T07:50:55;2.33;;;1.97;;
65315;SDS011;51920;53.952;10.292;2022-07-29T07:53:21;5.18;;;2.00;;
65315;SDS011;51920;53.952;10.292;2022-07-29T07:55:46;3.17;;;2.00;;
65315;SDS011;51920;53.952;10.292;2022-07-29T07:58:11;4.07;;;2.10;;
65315;SDS011;51920;53.952;10.292;2022-07-29T08:00:37;3.90;;;1.90;;
65315;SDS011;51920;53.952;10.292;2022-07-29T08:03:02;4.83;;;2.00;;
65315;SDS011;51920;53.952;10.292;2022-07-29T08:05:28;3.20;;;2.00;;
65315;SDS011;51920;53.952;10.292;2022-07-29T08:07:53;3.05;;;2.10;;
65315;SDS011;51920;53.952;10.292;2022-07-29T08:10:19;3.57;;;1.80;;
65315;SDS011;51920;53.952;10.292;2022-07-29T08:13:04;2.47;;;1.75;;
65315;SDS011;51920;53.952;10.292;2022-07-29T08:15:33;3.30;;;1.90;;
65315;SDS011;51920;53.952;10.292;2022-07-29T08:17:59;4.45;;;1.95;;
65315;SDS011;51920;53.952;10.292;2022-07-29T08:20:25;4.22;;;2.00;;
65315;SDS011;51920;53.952;10.292;2022-07-29T08:22:57;3.17;;;1.80;;
65315;SDS011;51920;53.952;10.292;2022-07-29T08:25:22;3.45;;;1.60;;
65315;SDS011;51920;53.952;10.292;2022-07-29T08:27:48;4.03;;;1.97;;
65315;SDS011;51920;53.952;10.292;2022-07-29T08:30:13;3.20;;;1.80;;
65315;SDS011;51920;53.952;10.292;2022-07-29T08:32:39;8.27;;;2.03;;
65315;SDS011;51920;53.952;10.292;2022-07-29T08:35:05;3.25;;;1.80;;
65315;SDS011;51920;53.952;10.292;2022-07-29T08:37:30;3.20;;;2.00;;
65315;SDS011;51920;53.952;10.292;2022-07-29T08:39:56;2.65;;;1.80;;
65315;SDS011;51920;53.952;10.292;2022-07-29T08:42:21;4.23;;;1.70;;
65315;SDS011;51920;53.952;10.292;2022-07-29T08:44:46;4.23;;;2.00;;
65315;SDS011;51920;53.952;10.292;2022-07-29T08:47:16;9.00;;;1.95;;
65315;SDS011;51920;53.952;10.292;2022-07-29T08:49:42;4.33;;;1.60;;
65315;SDS011;51920;53.952;10.292;2022-07-29T08:52:10;3.30;;;1.70;;
65315;SDS011;51920;53.952;10.292;2022-07-29T08:54:36;3.58;;;2.00;;
65315;SDS011;51920;53.952;10.292;2022-07-29T08:57:08;3.65;;;1.80;;
65315;SDS011;51920;53.952;10.292;2022-07-29T08:59:34;4.90;;;1.70;;
65315;SDS011;51920;53.952;10.292;2022-07-29T09:02:02;3.13;;;1.80;;
65315;SDS011;51920;53.952;10.292;2022-07-29T09:04:30;3.33;;;1.83;;
65315;SDS011;51920;53.952;10.292;2022-07-29T09:07:00;3.75;;;1.80;;
65315;SDS011;51920;53.952;10.292;2022-07-29T09:09:28;4.93;;;1.80;;
65315;SDS011;51920;53.952;10.292;2022-07-29T09:11:53;3.80;;;1.83;;
65315;SDS011;51920;53.952;10.292;2022-07-29T09:14:19;3.45;;;1.70;;
65315;SDS011;51920;53.952;10.292;2022-07-29T09:19:22;5.22;;;2.17;;
65315;SDS011;51920;53.952;10.292;2022-07-29T09:22:01;3.30;;;1.60;;
65315;SDS011;51920;53.952;10.292;2022-07-29T09:27:00;3.47;;;1.70;;
65315;SDS011;51920;53.952;10.292;2022-07-29T09:29:26;3.55;;;1.70;;
65315;SDS011;51920;53.952;10.292;2022-07-29T09:31:53;3.55;;;1.70;;
65315;SDS011;51920;53.952;10.292;2022-07-29T09:36:48;2.95;;;1.80;;
65315;SDS011;51920;53.952;10.292;2022-07-29T09:39:15;3.33;;;1.70;;
65315;SDS011;51920;53.952;10.292;2022-07-29T09:41:57;4.07;;;1.60;;
65315;SDS011;51920;53.952;10.292;2022-07-29T09:44:23;3.33;;;1.80;;
65315;SDS011;51920;53.952;10.292;2022-07-29T09:46:54;2.43;;;1.50;;
65315;SDS011;51920;53.952;10.292;2022-07-29T09:49:23;3.80;;;1.80;;
65315;SDS011;51920;53.952;10.292;2022-07-29T09:51:58;3.30;;;1.70;;
65315;SDS011;51920;53.952;10.292;2022-07-29T09:54:32;3.25;;;1.63;;
65315;SDS011;51920;53.952;10.292;2022-07-29T09:57:02;6.68;;;1.90;;
65315;SDS011;51920;53.952;10.292;2022-07-29T09:59:33;3.00;;;1.65;;
65315;SDS011;51920;53.952;10.292;2022-07-29T10:01:59;5.37;;;1.70;;
65315;SDS011;51920;53.952;10.292;2022-07-29T10:04:36;4.17;;;1.80;;
65315;SDS011;51920;53.952;10.292;2022-07-29T10:07:07;3.90;;;1.80;;
65315;SDS011;51920;53.952;10.292;2022-07-29T10:09:33;3.25;;;1.60;;
65315;SDS011;51920;53.952;10.292;2022-07-29T10:14:31;2.10;;;1.80;;
65315;SDS011;51920;53.952;10.292;2022-07-29T10:17:00;3.10;;;1.97;;
65315;SDS011;51920;53.952;10.292;2022-07-29T10:19:30;5.40;;;1.90;;
65315;SDS011;51920;53.952;10.292;2022-07-29T10:22:00;3.08;;;1.80;;
65315;SDS011;51920;53.952;10.292;2022-07-29T10:24:29;3.65;;;1.92;;
65315;SDS011;51920;53.952;10.292;2022-07-29T10:26:55;4.47;;;1.92;;
65315;SDS011;51920;53.952;10.292;2022-07-29T10:29:22;3.57;;;1.73;;
65315;SDS011;51920;53.952;10.292;2022-07-29T10:37:07;3.63;;;1.80;;
65315;SDS011;51920;53.952;10.292;2022-07-29T10:42:17;6.90;;;1.83;;
65315;SDS011;51920;53.952;10.292;2022-07-29T10:44:48;4.13;;;1.80;;
65315;SDS011;51920;53.952;10.292;2022-07-29T10:47:21;4.20;;;1.60;;
65315;SDS011;51920;53.952;10.292;2022-07-29T10:49:55;3.63;;;1.90;;
65315;SDS011;51920;53.952;10.292;2022-07-29T10:52:22;2.83;;;1.80;;
65315;SDS011;51920;53.952;10.292;2022-07-29T10:54:49;4.97;;;1.57;;
65315;SDS011;51920;53.952;10.292;2022-07-29T11:07:31;4.57;;;1.70;;
65315;SDS011;51920;53.952;10.292;2022-07-29T11:15:02;3.07;;;1.70;;
65315;SDS011;51920;53.952;10.292;2022-07-29T11:21:00;3.47;;;1.50;;
65315;SDS011;51920;53.952;10.292;2022-07-29T11:39:41;5.07;;;1.98;;
65315;SDS011;51920;53.952;10.292;2022-07-29T11:47:28;4.43;;;1.90;;
65315;SDS011;51920;53.952;10.292;2022-07-29T11:49:54;3.65;;;2.10;;
65315;SDS011;51920;53.952;10.292;2022-07-29T11:52:22;3.15;;;1.85;;
65315;SDS011;51920;53.952;10.292;2022-07-29T11:54:48;2.97;;;2.00;;
65315;SDS011;51920;53.952;10.292;2022-07-29T11:57:16;4.38;;;2.03;;
65315;SDS011;51920;53.952;10.292;2022-07-29T11:59:44;3.92;;;2.10;;
65315;SDS011;51920;53.952;10.292;2022-07-29T12:02:10;5.30;;;1.90;;
65315;SDS011;51920;53.952;10.292;2022-07-29T12:07:15;3.40;;;2.00;;
65315;SDS011;51920;53.952;10.292;2022-07-29T12:09:48;4.43;;;2.10;;
65315;SDS011;51920;53.952;10.292;2022-07-29T12:12:18;3.50;;;2.20;;
65315;SDS011;51920;53.952;10.292;2022-07-29T12:14:44;6.00;;;2.10;;
65315;SDS011;51920;53.952;10.292;2022-07-29T12:20:10;5.97;;;2.20;;
65315;SDS011;51920;53.952;10.292;2022-07-29T12:22:39;2.85;;;2.15;;
65315;SDS011;51920;53.952;10.292;2022-07-29T12:25:13;6.20;;;2.20;;
65315;SDS011;51920;53.952;10.292;2022-07-29T12:27:41;4.55;;;2.20;;
65315;SDS011;51920;53.952;10.292;2022-07-29T12:30:09;4.80;;;2.30;;
65315;SDS011;51920;53.952;10.292;2022-07-29T12:35:07;3.72;;;2.20;;
65315;SDS011;51920;53.952;10.292;2022-07-29T12:37:35;5.82;;;2.10;;
65315;SDS011;51920;53.952;10.292;2022-07-29T12:40:03;4.68;;;2.30;;
65315;SDS011;51920;53.952;10.292;2022-07-29T12:42:30;7.30;;;2.40;;
65315;SDS011;51920;53.952;10.292;2022-07-29T12:44:55;3.53;;;2.17;;
65315;SDS011;51920;53.952;10.292;2022-07-29T12:47:21;4.40;;;2.20;;
65315;SDS011;51920;53.952;10.292;2022-07-29T12:49:48;5.40;;;2.10;;
65315;SDS011;51920;53.952;10.292;2022-07-29T12:52:30;4.72;;;2.13;;
65315;SDS011;51920;53.952;10.292;2022-07-29T12:54:57;4.83;;;2.13;;
65315;SDS011;51920;53.952;10.292;2022-07-29T12:57:23;4.35;;;2.28;;
65315;SDS011;51920;53.952;10.292;2022-07-29T13:00:03;5.40;;;2.57;;
65315;SDS011;51920;53.952;10.292;2022-07-29T13:02:35;4.65;;;2.30;;
65315;SDS011;51920;53.952;10.292;2022-07-29T13:05:01;5.43;;;2.45;;
65315;SDS011;51920;53.952;10.292;2022-07-29T13:07:29;5.90;;;2.50;;
65315;SDS011;51920;53.952;10.292;2022-07-29T13:10:13;5.80;;;2.20;;
65315;SDS011;51920;53.952;10.292;2022-07-29T13:13:23;4.00;;;2.20;;
65315;SDS011;51920;53.952;10.292;2022-07-29T13:15:35;4.88;;;2.20;;
65315;SDS011;51920;53.952;10.292;2022-07-29T13:18:05;6.03;;;2.42;;
65315;SDS011;51920;53.952;10.292;2022-07-29T13:20:50;5.78;;;2.33;;
65315;SDS011;51920;53.952;10.292;2022-07-29T13:23:16;4.20;;;2.00;;
65315;SDS011;51920;53.952;10.292;2022-07-29T13:25:41;5.13;;;2.10;;
65315;SDS011;51920;53.952;10.292;2022-07-29T13:28:07;6.55;;;2.42;;
65315;SDS011;51920;53.952;10.292;2022-07-29T13:30:32;3.03;;;2.20;;
65315;SDS011;51920;53.952;10.292;2022-07-29T13:32:58;4.33;;;2.40;;
65315;SDS011;51920;53.952;10.292;2022-07-29T13:35:23;4.15;;;2.17;;
65315;SDS011;51920;53.952;10.292;2022-07-29T13:37:49;4.97;;;2.60;;
65315;SDS011;51920;53.952;10.292;2022-07-29T13:40:14;3.77;;;2.10;;
65315;SDS011;51920;53.952;10.292;2022-07-29T13:42:40;4.27;;;2.27;;
65315;SDS011;51920;53.952;10.292;2022-07-29T13:45:06;7.85;;;2.40;;
65315;SDS011;51920;53.952;10.292;2022-07-29T13:47:32;3.78;;;2.20;;
65315;SDS011;51920;53.952;10.292;2022-07-29T13:49:57;6.80;;;2.37;;
65315;SDS011;51920;53.952;10.292;2022-07-29T13:52:23;4.40;;;2.30;;
65315;SDS011;51920;53.952;10.292;2022-07-29T13:54:48;4.57;;;2.25;;
65315;SDS011;51920;53.952;10.292;2022-07-29T13:57:14;4.87;;;2.50;;
65315;SDS011;51920;53.952;10.292;2022-07-29T13:59:40;4.90;;;2.07;;
65315;SDS011;51920;53.952;10.292;2022-07-29T14:02:07;5.18;;;2.38;;
65315;SDS011;51920;53.952;10.292;2022-07-29T14:04:33;4.88;;;2.40;;
65315;SDS011;51920;53.952;10.292;2022-07-29T14:06:58;5.10;;;2.40;;
65315;SDS011;51920;53.952;10.292;2022-07-29T14:09:24;4.90;;;2.10;;
65315;SDS011;51920;53.952;10.292;2022-07-29T14:11:49;4.37;;;2.30;;
65315;SDS011;51920;53.952;10.292;2022-07-29T14:14:16;7.32;;;2.30;;
65315;SDS011;51920;53.952;10.292;2022-07-29T14:16:42;4.82;;;2.47;;
65315;SDS011;51920;53.952;10.292;2022-07-29T14:19:07;6.23;;;2.10;;
65315;SDS011;51920;53.952;10.292;2022-07-29T14:21:33;6.97;;;2.37;;
65315;SDS011;51920;53.952;10.292;2022-07-29T14:23:59;7.70;;;2.17;;
65315;SDS011;51920;53.952;10.292;2022-07-29T14:26:25;3.97;;;2.00;;
65315;SDS011;51920;53.952;10.292;2022-07-29T14:28:50;5.00;;;2.20;;
65315;SDS011;51920;53.952;10.292;2022-07-29T14:31:15;5.00;;;2.10;;
65315;SDS011;51920;53.952;10.292;2022-07-29T14:33:41;3.10;;;2.03;;
65315;SDS011;51920;53.952;10.292;2022-07-29T14:36:07;3.83;;;2.00;;
65315;SDS011;51920;53.952;10.292;2022-07-29T14:38:34;5.30;;;2.13;;
65315;SDS011;51920;53.952;10.292;2022-07-29T14:41:00;3.60;;;2.10;;
65315;SDS011;51920;53.952;10.292;2022-07-29T14:43:25;3.45;;;2.00;;
65315;SDS011;51920;53.952;10.292;2022-07-29T14:45:51;4.23;;;2.03;;
65315;SDS011;51920;53.952;10.292;2022-07-29T14:48:16;4.20;;;2.00;;
65315;SDS011;51920;53.952;10.292;2022-07-29T14:50:42;6.05;;;2.22;;
65315;SDS011;51920;53.952;10.292;2022-07-29T14:53:07;7.10;;;2.20;;
65315;SDS011;51920;53.952;10.292;2022-07-29T14:55:33;5.17;;;2.30;;
65315;SDS011;51920;53.952;10.292;2022-07-29T14:57:58;5.70;;;2.50;;
65315;SDS011;51920;53.952;10.292;2022-07-29T15:00:25;3.57;;;2.23;;
65315;SDS011;51920;53.952;10.292;2022-07-29T15:02:50;3.67;;;2.30;;
65315;SDS011;51920;53.952;10.292;2022-07-29T15:05:16;3.47;;;2.00;;
65315;SDS011;51920;53.952;10.292;2022-07-29T15:07:41;4.43;;;2.30;;
65315;SDS011;51920;53.952;10.292;2022-07-29T15:10:07;5.50;;;2.10;;
65315;SDS011;51920;53.952;10.292;2022-07-29T15:12:32;4.50;;;2.03;;
65315;SDS011;51920;53.952;10.292;2022-07-29T15:14:58;5.03;;;2.30;;
65315;SDS011;51920;53.952;10.292;2022-07-29T15:17:24;9.05;;;2.38;;
65315;SDS011;51920;53.952;10.292;2022-07-29T15:19:50;4.65;;;2.20;;
65315;SDS011;51920;53.952;10.292;2022-07-29T15:22:15;7.63;;;2.50;;
65315;SDS011;51920;53.952;10.292;2022-07-29T15:24:42;4.68;;;2.35;;
65315;SDS011;51920;53.952;10.292;2022-07-29T15:27:07;4.10;;;2.30;;
65315;SDS011;51920;53.952;10.292;2022-07-29T15:29:39;4.43;;;2.20;;
65315;SDS011;51920;53.952;10.292;2022-07-29T15:32:05;3.63;;;2.15;;
65315;SDS011;51920;53.952;10.292;2022-07-29T15:34:31;5.17;;;2.30;;
65315;SDS011;51920;53.952;10.292;2022-07-29T15:36:56;5.82;;;2.50;;
65315;SDS011;51920;53.952;10.292;2022-07-29T15:39:21;5.20;;;2.40;;
65315;SDS011;51920;53.952;10.292;2022-07-29T15:41:47;5.40;;;2.30;;
65315;SDS011;51920;53.952;10.292;2022-07-29T15:44:12;3.90;;;2.20;;
65315;SDS011;51920;53.952;10.292;2022-07-29T15:46:38;5.67;;;2.10;;
65315;SDS011;51920;53.952;10.292;2022-07-29T15:49:22;6.15;;;2.30;;